sensor_id;sensor_type;location;lat;lon;timestamp;P1;durP1;ratioP1;P2;durP2;ratioP2
6362;SDS011;3214;49.932;8.494;2024-03-29T00:01:16;4.60;;;1.73;;
6362;SDS011;3214;49.932;8.494;2024-03-29T00:03:42;3.30;;;1.60;;
6362;SDS011;3214;49.932;8.494;2024-03-29T00:06:08;3.63;;;1.40;;
6362;SDS011;3214;49.932;8.494;2024-03-29T00:08:33;2.10;;;1.43;;
6362;SDS011;3214;49.932;8.494;2024-03-29T00:10:59;2.77;;;1.40;;
6362;SDS011;3214;49.932;8.494;2024-03-29T00:13:26;2.17;;;1.10;;
6362;SDS011;3214;49.932;8.494;2024-03-29T00:15:52;1.80;;;1.30;;
6362;SDS011;3214;49.932;8.494;2024-03-29T00:18:18;2.87;;;1.40;;
6362;SDS011;3214;49.932;8.494;2024-03-29T00:20:44;2.60;;;1.30;;
6362;SDS011;3214;49.932;8.494;2024-03-29T00:23:10;2.33;;;1.50;;
6362;SDS011;3214;49.932;8.494;2024-03-29T00:25:36;4.23;;;1.40;;
6362;SDS011;3214;49.932;8.494;2024-03-29T00:28:01;3.83;;;1.40;;
6362;SDS011;3214;49.932;8.494;2024-03-29T00:30:30;2.57;;;1.37;;
6362;SDS011;3214;49.932;8.494;2024-03-29T00:32:56;4.07;;;1.30;;
6362;SDS011;3214;49.932;8.494;2024-03-29T00:35:22;3.80;;;1.27;;
6362;SDS011;3214;49.932;8.494;2024-03-29T00:37:48;3.60;;;1.40;;
6362;SDS011;3214;49.932;8.494;2024-03-29T00:40:14;3.43;;;1.20;;
6362;SDS011;3214;49.932;8.494;2024-03-29T00:42:41;1.97;;;1.17;;
6362;SDS011;3214;49.932;8.494;2024-03-29T00:45:07;2.73;;;1.30;;
6362;SDS011;3214;49.932;8.494;2024-03-29T00:47:35;2.70;;;1.27;;
6362;SDS011;3214;49.932;8.494;2024-03-29T00:50:01;3.70;;;1.30;;
6362;SDS011;3214;49.932;8.494;2024-03-29T00:52:26;4.10;;;1.73;;
6362;SDS011;3214;49.932;8.494;2024-03-29T00:54:52;3.27;;;1.30;;
6362;SDS011;3214;49.932;8.494;2024-03-29T00:57:18;3.23;;;1.40;;
6362;SDS011;3214;49.932;8.494;2024-03-29T00:59:44;3.07;;;1.30;;
6362;SDS011;3214;49.932;8.494;2024-03-29T01:02:11;2.13;;;1.40;;
6362;SDS011;3214;49.932;8.494;2024-03-29T01:04:38;2.23;;;1.20;;
6362;SDS011;3214;49.932;8.494;2024-03-29T01:07:04;3.17;;;1.20;;
6362;SDS011;3214;49.932;8.494;2024-03-29T01:09:30;4.13;;;2.20;;
6362;SDS011;3214;49.932;8.494;2024-03-29T01:11:56;3.57;;;2.40;;
6362;SDS011;3214;49.932;8.494;2024-03-29T01:14:22;4.13;;;2.03;;
6362;SDS011;3214;49.932;8.494;2024-03-29T01:16:47;3.40;;;1.60;;
6362;SDS011;3214;49.932;8.494;2024-03-29T01:19:13;4.70;;;2.00;;
6362;SDS011;3214;49.932;8.494;2024-03-29T01:21:41;5.00;;;3.03;;
6362;SDS011;3214;49.932;8.494;2024-03-29T01:24:06;7.20;;;2.30;;
6362;SDS011;3214;49.932;8.494;2024-03-29T01:26:32;5.80;;;2.00;;
6362;SDS011;3214;49.932;8.494;2024-03-29T01:28:58;2.60;;;1.30;;
6362;SDS011;3214;49.932;8.494;2024-03-29T01:31:25;3.33;;;1.30;;
6362;SDS011;3214;49.932;8.494;2024-03-29T01:33:51;2.90;;;1.40;;
6362;SDS011;3214;49.932;8.494;2024-03-29T01:36:16;8.30;;;1.40;;
6362;SDS011;3214;49.932;8.494;2024-03-29T01:38:44;3.63;;;2.30;;
6362;SDS011;3214;49.932;8.494;2024-03-29T01:41:10;3.00;;;1.77;;
6362;SDS011;3214;49.932;8.494;2024-03-29T01:43:35;1.73;;;1.40;;
6362;SDS011;3214;49.932;8.494;2024-03-29T01:46:02;4.90;;;1.37;;
6362;SDS011;3214;49.932;8.494;2024-03-29T01:48:31;4.07;;;1.37;;
6362;SDS011;3214;49.932;8.494;2024-03-29T01:50:58;3.83;;;1.33;;
6362;SDS011;3214;49.932;8.494;2024-03-29T01:53:26;3.50;;;1.60;;
6362;SDS011;3214;49.932;8.494;2024-03-29T01:55:55;3.00;;;1.50;;
6362;SDS011;3214;49.932;8.494;2024-03-29T01:58:23;4.03;;;1.27;;
6362;SDS011;3214;49.932;8.494;2024-03-29T02:00:52;6.63;;;1.43;;
6362;SDS011;3214;49.932;8.494;2024-03-29T02:03:19;2.13;;;1.20;;
6362;SDS011;3214;49.932;8.494;2024-03-29T02:05:46;2.07;;;1.30;;
6362;SDS011;3214;49.932;8.494;2024-03-29T02:08:14;2.97;;;1.17;;
6362;SDS011;3214;49.932;8.494;2024-03-29T02:10:41;2.43;;;1.07;;
6362;SDS011;3214;49.932;8.494;2024-03-29T02:13:10;6.10;;;1.40;;
6362;SDS011;3214;49.932;8.494;2024-03-29T02:15:38;2.80;;;1.30;;
6362;SDS011;3214;49.932;8.494;2024-03-29T02:18:05;3.30;;;1.13;;
6362;SDS011;3214;49.932;8.494;2024-03-29T02:20:32;2.93;;;1.20;;
6362;SDS011;3214;49.932;8.494;2024-03-29T02:23:02;2.87;;;1.23;;
6362;SDS011;3214;49.932;8.494;2024-03-29T02:25:34;3.47;;;1.10;;
6362;SDS011;3214;49.932;8.494;2024-03-29T02:28:01;2.70;;;1.17;;
6362;SDS011;3214;49.932;8.494;2024-03-29T02:30:29;3.50;;;1.40;;
6362;SDS011;3214;49.932;8.494;2024-03-29T02:32:56;4.30;;;1.40;;
6362;SDS011;3214;49.932;8.494;2024-03-29T02:35:23;3.90;;;1.33;;
6362;SDS011;3214;49.932;8.494;2024-03-29T02:37:50;2.83;;;1.30;;
6362;SDS011;3214;49.932;8.494;2024-03-29T02:40:17;3.40;;;1.30;;
6362;SDS011;3214;49.932;8.494;2024-03-29T02:42:45;3.83;;;1.40;;
6362;SDS011;3214;49.932;8.494;2024-03-29T02:45:13;2.50;;;1.10;;
6362;SDS011;3214;49.932;8.494;2024-03-29T02:47:40;3.60;;;1.20;;
6362;SDS011;3214;49.932;8.494;2024-03-29T02:50:08;2.27;;;1.20;;
6362;SDS011;3214;49.932;8.494;2024-03-29T02:52:35;3.83;;;1.57;;
6362;SDS011;3214;49.932;8.494;2024-03-29T02:55:02;3.23;;;1.50;;
6362;SDS011;3214;49.932;8.494;2024-03-29T02:57:28;4.37;;;1.93;;
6362;SDS011;3214;49.932;8.494;2024-03-29T02:59:56;3.37;;;1.47;;
6362;SDS011;3214;49.932;8.494;2024-03-29T03:02:21;3.13;;;1.27;;
6362;SDS011;3214;49.932;8.494;2024-03-29T03:04:48;3.00;;;1.33;;
6362;SDS011;3214;49.932;8.494;2024-03-29T03:07:14;3.37;;;1.60;;
6362;SDS011;3214;49.932;8.494;2024-03-29T03:09:58;4.23;;;1.37;;
6362;SDS011;3214;49.932;8.494;2024-03-29T03:12:42;5.07;;;1.37;;
6362;SDS011;3214;49.932;8.494;2024-03-29T03:15:11;4.13;;;1.30;;
6362;SDS011;3214;49.932;8.494;2024-03-29T03:17:37;2.70;;;1.40;;
6362;SDS011;3214;49.932;8.494;2024-03-29T03:20:04;2.07;;;1.20;;
6362;SDS011;3214;49.932;8.494;2024-03-29T03:22:31;5.00;;;1.47;;
6362;SDS011;3214;49.932;8.494;2024-03-29T03:24:58;2.83;;;1.33;;
6362;SDS011;3214;49.932;8.494;2024-03-29T03:27:24;3.63;;;1.30;;
6362;SDS011;3214;49.932;8.494;2024-03-29T03:29:51;11.87;;;5.60;;
6362;SDS011;3214;49.932;8.494;2024-03-29T03:32:18;9.27;;;4.60;;
6362;SDS011;3214;49.932;8.494;2024-03-29T03:34:45;5.07;;;2.30;;
6362;SDS011;3214;49.932;8.494;2024-03-29T03:37:10;3.50;;;1.50;;
6362;SDS011;3214;49.932;8.494;2024-03-29T03:39:37;3.53;;;1.47;;
6362;SDS011;3214;49.932;8.494;2024-03-29T03:42:03;3.17;;;1.37;;
6362;SDS011;3214;49.932;8.494;2024-03-29T03:44:30;3.60;;;1.30;;
6362;SDS011;3214;49.932;8.494;2024-03-29T03:46:56;5.13;;;1.57;;
6362;SDS011;3214;49.932;8.494;2024-03-29T03:49:24;3.40;;;1.60;;
6362;SDS011;3214;49.932;8.494;2024-03-29T03:51:50;2.60;;;1.33;;
6362;SDS011;3214;49.932;8.494;2024-03-29T03:54:17;5.77;;;1.30;;
6362;SDS011;3214;49.932;8.494;2024-03-29T03:56:42;4.40;;;1.50;;
6362;SDS011;3214;49.932;8.494;2024-03-29T03:59:09;3.30;;;1.60;;
6362;SDS011;3214;49.932;8.494;2024-03-29T04:01:35;4.07;;;1.50;;
6362;SDS011;3214;49.932;8.494;2024-03-29T04:04:03;4.17;;;1.40;;
6362;SDS011;3214;49.932;8.494;2024-03-29T04:06:30;3.93;;;2.13;;
6362;SDS011;3214;49.932;8.494;2024-03-29T04:08:57;4.73;;;1.40;;
6362;SDS011;3214;49.932;8.494;2024-03-29T04:11:22;3.53;;;1.30;;
6362;SDS011;3214;49.932;8.494;2024-03-29T04:13:49;2.43;;;1.37;;
6362;SDS011;3214;49.932;8.494;2024-03-29T04:16:15;3.87;;;1.30;;
6362;SDS011;3214;49.932;8.494;2024-03-29T04:18:42;3.43;;;1.20;;
6362;SDS011;3214;49.932;8.494;2024-03-29T04:21:07;2.77;;;1.10;;
6362;SDS011;3214;49.932;8.494;2024-03-29T04:23:36;4.33;;;1.40;;
6362;SDS011;3214;49.932;8.494;2024-03-29T04:26:02;3.43;;;1.23;;
6362;SDS011;3214;49.932;8.494;2024-03-29T04:28:29;1.67;;;1.17;;
6362;SDS011;3214;49.932;8.494;2024-03-29T04:30:55;3.77;;;1.20;;
6362;SDS011;3214;49.932;8.494;2024-03-29T04:33:24;2.77;;;1.27;;
6362;SDS011;3214;49.932;8.494;2024-03-29T04:35:51;3.33;;;1.37;;
6362;SDS011;3214;49.932;8.494;2024-03-29T04:38:20;2.73;;;1.10;;
6362;SDS011;3214;49.932;8.494;2024-03-29T04:40:48;2.80;;;1.37;;
6362;SDS011;3214;49.932;8.494;2024-03-29T04:43:17;4.33;;;1.50;;
6362;SDS011;3214;49.932;8.494;2024-03-29T04:45:44;3.60;;;1.43;;
6362;SDS011;3214;49.932;8.494;2024-03-29T04:48:11;4.20;;;1.20;;
6362;SDS011;3214;49.932;8.494;2024-03-29T04:50:38;6.10;;;1.40;;
6362;SDS011;3214;49.932;8.494;2024-03-29T04:53:05;2.30;;;1.40;;
6362;SDS011;3214;49.932;8.494;2024-03-29T04:55:33;3.13;;;1.30;;
6362;SDS011;3214;49.932;8.494;2024-03-29T04:58:01;3.53;;;1.50;;
6362;SDS011;3214;49.932;8.494;2024-03-29T05:00:28;5.93;;;1.50;;
6362;SDS011;3214;49.932;8.494;2024-03-29T05:02:55;4.30;;;1.60;;
6362;SDS011;3214;49.932;8.494;2024-03-29T05:05:21;2.60;;;1.30;;
6362;SDS011;3214;49.932;8.494;2024-03-29T05:07:48;4.23;;;1.30;;
6362;SDS011;3214;49.932;8.494;2024-03-29T05:10:15;6.03;;;1.30;;
6362;SDS011;3214;49.932;8.494;2024-03-29T05:12:43;5.93;;;1.40;;
6362;SDS011;3214;49.932;8.494;2024-03-29T05:15:11;2.87;;;1.20;;
6362;SDS011;3214;49.932;8.494;2024-03-29T05:17:38;2.27;;;1.20;;
6362;SDS011;3214;49.932;8.494;2024-03-29T05:20:06;4.50;;;1.50;;
6362;SDS011;3214;49.932;8.494;2024-03-29T05:22:33;5.97;;;1.80;;
6362;SDS011;3214;49.932;8.494;2024-03-29T05:25:00;4.07;;;1.43;;
6362;SDS011;3214;49.932;8.494;2024-03-29T05:27:28;3.73;;;1.40;;
6362;SDS011;3214;49.932;8.494;2024-03-29T05:29:55;3.40;;;1.40;;
6362;SDS011;3214;49.932;8.494;2024-03-29T05:32:23;4.37;;;1.53;;
6362;SDS011;3214;49.932;8.494;2024-03-29T05:34:50;2.63;;;1.30;;
6362;SDS011;3214;49.932;8.494;2024-03-29T05:37:16;3.00;;;1.23;;
6362;SDS011;3214;49.932;8.494;2024-03-29T05:39:43;1.90;;;1.30;;
6362;SDS011;3214;49.932;8.494;2024-03-29T05:42:10;1.80;;;1.30;;
6362;SDS011;3214;49.932;8.494;2024-03-29T05:44:38;3.07;;;1.40;;
6362;SDS011;3214;49.932;8.494;2024-03-29T05:47:04;2.67;;;1.20;;
6362;SDS011;3214;49.932;8.494;2024-03-29T05:49:33;4.30;;;1.53;;
6362;SDS011;3214;49.932;8.494;2024-03-29T05:51:59;2.50;;;1.13;;
6362;SDS011;3214;49.932;8.494;2024-03-29T05:54:26;2.70;;;1.30;;
6362;SDS011;3214;49.932;8.494;2024-03-29T05:56:53;3.33;;;1.30;;
6362;SDS011;3214;49.932;8.494;2024-03-29T05:59:20;2.50;;;1.33;;
6362;SDS011;3214;49.932;8.494;2024-03-29T06:01:47;4.03;;;1.53;;
6362;SDS011;3214;49.932;8.494;2024-03-29T06:04:13;4.17;;;1.37;;
6362;SDS011;3214;49.932;8.494;2024-03-29T06:06:45;3.13;;;1.60;;
6362;SDS011;3214;49.932;8.494;2024-03-29T06:09:11;4.37;;;1.70;;
6362;SDS011;3214;49.932;8.494;2024-03-29T06:11:38;4.30;;;1.53;;
6362;SDS011;3214;49.932;8.494;2024-03-29T06:14:05;3.30;;;1.57;;
6362;SDS011;3214;49.932;8.494;2024-03-29T06:16:49;3.73;;;1.70;;
6362;SDS011;3214;49.932;8.494;2024-03-29T06:19:33;4.17;;;1.60;;
6362;SDS011;3214;49.932;8.494;2024-03-29T06:22:02;3.60;;;1.70;;
6362;SDS011;3214;49.932;8.494;2024-03-29T06:24:29;1.83;;;1.40;;
6362;SDS011;3214;49.932;8.494;2024-03-29T06:26:57;2.83;;;1.50;;
6362;SDS011;3214;49.932;8.494;2024-03-29T06:29:24;5.53;;;2.37;;
6362;SDS011;3214;49.932;8.494;2024-03-29T06:31:51;6.10;;;2.80;;
6362;SDS011;3214;49.932;8.494;2024-03-29T06:34:17;6.83;;;3.10;;
6362;SDS011;3214;49.932;8.494;2024-03-29T06:36:44;5.37;;;3.13;;
6362;SDS011;3214;49.932;8.494;2024-03-29T06:39:12;4.83;;;2.30;;
6362;SDS011;3214;49.932;8.494;2024-03-29T06:41:39;8.40;;;2.10;;
6362;SDS011;3214;49.932;8.494;2024-03-29T06:44:05;5.10;;;2.20;;
6362;SDS011;3214;49.932;8.494;2024-03-29T06:46:32;4.60;;;1.90;;
6362;SDS011;3214;49.932;8.494;2024-03-29T06:48:59;3.13;;;2.10;;
6362;SDS011;3214;49.932;8.494;2024-03-29T06:51:26;9.57;;;3.47;;
6362;SDS011;3214;49.932;8.494;2024-03-29T06:53:52;5.70;;;2.70;;
6362;SDS011;3214;49.932;8.494;2024-03-29T06:56:20;5.67;;;2.50;;
6362;SDS011;3214;49.932;8.494;2024-03-29T06:58:47;4.60;;;1.90;;
6362;SDS011;3214;49.932;8.494;2024-03-29T07:01:14;4.30;;;2.17;;
6362;SDS011;3214;49.932;8.494;2024-03-29T07:03:41;4.93;;;2.40;;
6362;SDS011;3214;49.932;8.494;2024-03-29T07:06:08;6.57;;;2.80;;
6362;SDS011;3214;49.932;8.494;2024-03-29T07:08:35;3.67;;;2.23;;
6362;SDS011;3214;49.932;8.494;2024-03-29T07:11:02;4.90;;;2.40;;
6362;SDS011;3214;49.932;8.494;2024-03-29T07:13:30;6.17;;;2.10;;
6362;SDS011;3214;49.932;8.494;2024-03-29T07:15:57;3.70;;;1.70;;
6362;SDS011;3214;49.932;8.494;2024-03-29T07:18:24;6.17;;;1.97;;
6362;SDS011;3214;49.932;8.494;2024-03-29T07:20:51;3.40;;;1.40;;
6362;SDS011;3214;49.932;8.494;2024-03-29T07:23:18;5.87;;;1.80;;
6362;SDS011;3214;49.932;8.494;2024-03-29T07:25:45;3.60;;;1.50;;
6362;SDS011;3214;49.932;8.494;2024-03-29T07:28:23;3.07;;;1.63;;
6362;SDS011;3214;49.932;8.494;2024-03-29T07:30:51;3.20;;;1.63;;
6362;SDS011;3214;49.932;8.494;2024-03-29T07:33:18;2.93;;;1.80;;
6362;SDS011;3214;49.932;8.494;2024-03-29T07:35:46;4.00;;;1.70;;
6362;SDS011;3214;49.932;8.494;2024-03-29T07:38:13;5.83;;;1.80;;
6362;SDS011;3214;49.932;8.494;2024-03-29T07:40:42;3.03;;;1.90;;
6362;SDS011;3214;49.932;8.494;2024-03-29T07:43:09;6.67;;;3.87;;
6362;SDS011;3214;49.932;8.494;2024-03-29T07:45:34;11.53;;;6.77;;
6362;SDS011;3214;49.932;8.494;2024-03-29T07:48:03;10.57;;;6.53;;
6362;SDS011;3214;49.932;8.494;2024-03-29T07:50:30;12.63;;;7.00;;
6362;SDS011;3214;49.932;8.494;2024-03-29T07:52:57;10.07;;;5.60;;
6362;SDS011;3214;49.932;8.494;2024-03-29T07:55:24;9.50;;;6.20;;
6362;SDS011;3214;49.932;8.494;2024-03-29T07:57:50;8.77;;;3.67;;
6362;SDS011;3214;49.932;8.494;2024-03-29T08:00:18;6.23;;;3.30;;
6362;SDS011;3214;49.932;8.494;2024-03-29T08:02:45;8.73;;;5.97;;
6362;SDS011;3214;49.932;8.494;2024-03-29T08:05:13;10.37;;;6.60;;
6362;SDS011;3214;49.932;8.494;2024-03-29T08:07:40;7.23;;;3.00;;
6362;SDS011;3214;49.932;8.494;2024-03-29T08:10:07;4.93;;;3.20;;
6362;SDS011;3214;49.932;8.494;2024-03-29T08:12:34;4.83;;;3.37;;
6362;SDS011;3214;49.932;8.494;2024-03-29T08:15:02;9.43;;;6.77;;
6362;SDS011;3214;49.932;8.494;2024-03-29T08:17:29;6.07;;;4.00;;
6362;SDS011;3214;49.932;8.494;2024-03-29T08:19:56;9.93;;;5.63;;
6362;SDS011;3214;49.932;8.494;2024-03-29T08:22:24;6.73;;;4.50;;
6362;SDS011;3214;49.932;8.494;2024-03-29T08:24:53;4.90;;;3.60;;
6362;SDS011;3214;49.932;8.494;2024-03-29T08:27:20;5.63;;;3.60;;
6362;SDS011;3214;49.932;8.494;2024-03-29T08:29:46;6.87;;;5.33;;
6362;SDS011;3214;49.932;8.494;2024-03-29T08:32:15;6.47;;;5.10;;
6362;SDS011;3214;49.932;8.494;2024-03-29T08:34:42;5.27;;;4.10;;
6362;SDS011;3214;49.932;8.494;2024-03-29T08:37:09;4.67;;;3.57;;
6362;SDS011;3214;49.932;8.494;2024-03-29T08:39:37;3.13;;;2.10;;
6362;SDS011;3214;49.932;8.494;2024-03-29T08:42:04;3.43;;;2.00;;
6362;SDS011;3214;49.932;8.494;2024-03-29T08:44:31;4.50;;;1.93;;
6362;SDS011;3214;49.932;8.494;2024-03-29T08:46:58;6.33;;;2.30;;
6362;SDS011;3214;49.932;8.494;2024-03-29T08:49:26;3.73;;;2.60;;
6362;SDS011;3214;49.932;8.494;2024-03-29T08:51:53;6.90;;;3.10;;
6362;SDS011;3214;49.932;8.494;2024-03-29T08:54:20;13.17;;;6.50;;
6362;SDS011;3214;49.932;8.494;2024-03-29T08:56:48;14.17;;;6.77;;
6362;SDS011;3214;49.932;8.494;2024-03-29T08:59:15;8.90;;;5.57;;
6362;SDS011;3214;49.932;8.494;2024-03-29T09:01:43;9.07;;;4.87;;
6362;SDS011;3214;49.932;8.494;2024-03-29T09:04:13;7.37;;;4.50;;
6362;SDS011;3214;49.932;8.494;2024-03-29T09:06:41;4.23;;;2.60;;
6362;SDS011;3214;49.932;8.494;2024-03-29T09:09:08;5.50;;;2.90;;
6362;SDS011;3214;49.932;8.494;2024-03-29T09:11:35;7.83;;;2.80;;
6362;SDS011;3214;49.932;8.494;2024-03-29T09:14:04;5.03;;;2.70;;
6362;SDS011;3214;49.932;8.494;2024-03-29T09:16:34;8.47;;;3.33;;
6362;SDS011;3214;49.932;8.494;2024-03-29T09:19:01;8.40;;;5.67;;
6362;SDS011;3214;49.932;8.494;2024-03-29T09:21:29;8.03;;;4.50;;
6362;SDS011;3214;49.932;8.494;2024-03-29T09:23:56;6.47;;;4.03;;
6362;SDS011;3214;49.932;8.494;2024-03-29T09:26:23;9.80;;;5.20;;
6362;SDS011;3214;49.932;8.494;2024-03-29T09:28:50;6.83;;;3.87;;
6362;SDS011;3214;49.932;8.494;2024-03-29T09:31:18;9.70;;;5.80;;
6362;SDS011;3214;49.932;8.494;2024-03-29T09:33:45;10.57;;;6.77;;
6362;SDS011;3214;49.932;8.494;2024-03-29T09:36:17;10.20;;;5.93;;
6362;SDS011;3214;49.932;8.494;2024-03-29T09:38:46;10.70;;;5.47;;
6362;SDS011;3214;49.932;8.494;2024-03-29T09:41:13;8.13;;;4.50;;
6362;SDS011;3214;49.932;8.494;2024-03-29T09:43:41;8.00;;;3.80;;
6362;SDS011;3214;49.932;8.494;2024-03-29T09:46:11;11.33;;;4.87;;
6362;SDS011;3214;49.932;8.494;2024-03-29T09:48:40;8.37;;;5.90;;
6362;SDS011;3214;49.932;8.494;2024-03-29T09:51:10;8.17;;;4.77;;
6362;SDS011;3214;49.932;8.494;2024-03-29T09:53:39;6.23;;;4.23;;
6362;SDS011;3214;49.932;8.494;2024-03-29T09:56:08;7.83;;;4.40;;
6362;SDS011;3214;49.932;8.494;2024-03-29T09:58:36;7.43;;;4.20;;
6362;SDS011;3214;49.932;8.494;2024-03-29T10:01:04;9.63;;;4.83;;
6362;SDS011;3214;49.932;8.494;2024-03-29T10:03:39;8.20;;;4.63;;
6362;SDS011;3214;49.932;8.494;2024-03-29T10:06:08;6.20;;;3.50;;
6362;SDS011;3214;49.932;8.494;2024-03-29T10:08:37;6.63;;;3.50;;
6362;SDS011;3214;49.932;8.494;2024-03-29T10:11:04;6.43;;;3.47;;
6362;SDS011;3214;49.932;8.494;2024-03-29T10:13:31;5.27;;;3.17;;
6362;SDS011;3214;49.932;8.494;2024-03-29T10:15:59;5.10;;;3.13;;
6362;SDS011;3214;49.932;8.494;2024-03-29T10:18:28;4.63;;;2.70;;
6362;SDS011;3214;49.932;8.494;2024-03-29T10:21:01;5.50;;;3.27;;
6362;SDS011;3214;49.932;8.494;2024-03-29T10:23:28;6.90;;;3.30;;
6362;SDS011;3214;49.932;8.494;2024-03-29T10:25:56;4.37;;;3.23;;
6362;SDS011;3214;49.932;8.494;2024-03-29T10:28:23;6.60;;;3.30;;
6362;SDS011;3214;49.932;8.494;2024-03-29T10:30:57;3.47;;;1.80;;
6362;SDS011;3214;49.932;8.494;2024-03-29T10:33:27;3.27;;;1.70;;
6362;SDS011;3214;49.932;8.494;2024-03-29T10:35:54;1.63;;;1.47;;
6362;SDS011;3214;49.932;8.494;2024-03-29T10:38:24;3.27;;;1.50;;
6362;SDS011;3214;49.932;8.494;2024-03-29T10:40:51;2.30;;;1.23;;
6362;SDS011;3214;49.932;8.494;2024-03-29T10:43:18;2.80;;;1.40;;
6362;SDS011;3214;49.932;8.494;2024-03-29T10:45:46;1.80;;;1.30;;
6362;SDS011;3214;49.932;8.494;2024-03-29T10:48:15;5.00;;;1.60;;
6362;SDS011;3214;49.932;8.494;2024-03-29T10:50:42;2.97;;;1.50;;
6362;SDS011;3214;49.932;8.494;2024-03-29T10:53:12;3.37;;;1.60;;
6362;SDS011;3214;49.932;8.494;2024-03-29T10:55:41;1.83;;;1.43;;
6362;SDS011;3214;49.932;8.494;2024-03-29T10:58:10;3.30;;;1.40;;
6362;SDS011;3214;49.932;8.494;2024-03-29T11:00:41;2.50;;;1.27;;
6362;SDS011;3214;49.932;8.494;2024-03-29T11:03:13;3.33;;;1.50;;
6362;SDS011;3214;49.932;8.494;2024-03-29T11:05:46;4.27;;;1.23;;
6362;SDS011;3214;49.932;8.494;2024-03-29T11:08:15;1.60;;;1.23;;
6362;SDS011;3214;49.932;8.494;2024-03-29T11:10:49;4.00;;;1.10;;
6362;SDS011;3214;49.932;8.494;2024-03-29T11:13:19;1.50;;;1.37;;
6362;SDS011;3214;49.932;8.494;2024-03-29T11:15:51;2.37;;;1.43;;
6362;SDS011;3214;49.932;8.494;2024-03-29T11:18:18;2.43;;;1.30;;
6362;SDS011;3214;49.932;8.494;2024-03-29T11:20:46;5.27;;;1.80;;
6362;SDS011;3214;49.932;8.494;2024-03-29T11:23:16;2.00;;;1.40;;
6362;SDS011;3214;49.932;8.494;2024-03-29T11:25:44;5.40;;;1.60;;
6362;SDS011;3214;49.932;8.494;2024-03-29T11:28:21;2.53;;;1.60;;
6362;SDS011;3214;49.932;8.494;2024-03-29T11:30:50;6.00;;;2.07;;
6362;SDS011;3214;49.932;8.494;2024-03-29T11:33:25;2.90;;;1.73;;
6362;SDS011;3214;49.932;8.494;2024-03-29T11:35:53;2.23;;;1.57;;
6362;SDS011;3214;49.932;8.494;2024-03-29T11:38:20;3.50;;;1.80;;
6362;SDS011;3214;49.932;8.494;2024-03-29T11:40:53;3.10;;;2.03;;
6362;SDS011;3214;49.932;8.494;2024-03-29T11:43:21;3.00;;;1.67;;
6362;SDS011;3214;49.932;8.494;2024-03-29T11:45:48;3.00;;;1.80;;
6362;SDS011;3214;49.932;8.494;2024-03-29T11:48:20;3.10;;;2.10;;
6362;SDS011;3214;49.932;8.494;2024-03-29T11:50:50;8.43;;;2.10;;
6362;SDS011;3214;49.932;8.494;2024-03-29T11:53:17;3.37;;;2.10;;
6362;SDS011;3214;49.932;8.494;2024-03-29T11:55:44;5.33;;;2.30;;
6362;SDS011;3214;49.932;8.494;2024-03-29T11:58:11;3.93;;;2.30;;
6362;SDS011;3214;49.932;8.494;2024-03-29T12:00:39;2.60;;;2.00;;
6362;SDS011;3214;49.932;8.494;2024-03-29T12:03:09;5.60;;;2.03;;
6362;SDS011;3214;49.932;8.494;2024-03-29T12:05:36;3.53;;;2.63;;
6362;SDS011;3214;49.932;8.494;2024-03-29T12:08:03;4.60;;;2.40;;
6362;SDS011;3214;49.932;8.494;2024-03-29T12:10:30;3.30;;;2.20;;
6362;SDS011;3214;49.932;8.494;2024-03-29T12:12:57;4.63;;;2.40;;
6362;SDS011;3214;49.932;8.494;2024-03-29T12:15:27;3.93;;;2.20;;
6362;SDS011;3214;49.932;8.494;2024-03-29T12:17:56;3.10;;;2.53;;
6362;SDS011;3214;49.932;8.494;2024-03-29T12:20:23;4.10;;;2.97;;
6362;SDS011;3214;49.932;8.494;2024-03-29T12:22:51;3.37;;;2.73;;
6362;SDS011;3214;49.932;8.494;2024-03-29T12:25:19;3.70;;;2.60;;
6362;SDS011;3214;49.932;8.494;2024-03-29T12:27:46;5.23;;;2.80;;
6362;SDS011;3214;49.932;8.494;2024-03-29T12:30:13;5.07;;;3.00;;
6362;SDS011;3214;49.932;8.494;2024-03-29T12:32:40;4.57;;;3.17;;
6362;SDS011;3214;49.932;8.494;2024-03-29T12:35:09;4.43;;;3.40;;
6362;SDS011;3214;49.932;8.494;2024-03-29T12:37:36;7.67;;;3.53;;
6362;SDS011;3214;49.932;8.494;2024-03-29T12:40:04;6.53;;;3.40;;
6362;SDS011;3214;49.932;8.494;2024-03-29T12:42:37;5.53;;;3.17;;
6362;SDS011;3214;49.932;8.494;2024-03-29T12:45:04;5.80;;;3.40;;
6362;SDS011;3214;49.932;8.494;2024-03-29T12:47:32;6.60;;;3.70;;
6362;SDS011;3214;49.932;8.494;2024-03-29T12:50:00;5.40;;;3.07;;
6362;SDS011;3214;49.932;8.494;2024-03-29T12:52:37;7.47;;;3.70;;
6362;SDS011;3214;49.932;8.494;2024-03-29T12:55:04;5.73;;;3.67;;
6362;SDS011;3214;49.932;8.494;2024-03-29T12:57:32;5.17;;;3.57;;
6362;SDS011;3214;49.932;8.494;2024-03-29T12:59:59;4.40;;;3.47;;
6362;SDS011;3214;49.932;8.494;2024-03-29T13:02:26;3.63;;;3.30;;
6362;SDS011;3214;49.932;8.494;2024-03-29T13:04:53;4.37;;;2.80;;
6362;SDS011;3214;49.932;8.494;2024-03-29T13:07:20;4.63;;;3.20;;
6362;SDS011;3214;49.932;8.494;2024-03-29T13:09:48;6.60;;;3.10;;
6362;SDS011;3214;49.932;8.494;2024-03-29T13:12:14;4.87;;;3.20;;
6362;SDS011;3214;49.932;8.494;2024-03-29T13:14:41;3.90;;;3.20;;
6362;SDS011;3214;49.932;8.494;2024-03-29T13:17:08;5.47;;;3.23;;
6362;SDS011;3214;49.932;8.494;2024-03-29T13:19:35;3.73;;;2.90;;
6362;SDS011;3214;49.932;8.494;2024-03-29T13:22:02;13.07;;;3.60;;
6362;SDS011;3214;49.932;8.494;2024-03-29T13:24:31;3.23;;;2.93;;
6362;SDS011;3214;49.932;8.494;2024-03-29T13:26:59;7.07;;;3.40;;
6362;SDS011;3214;49.932;8.494;2024-03-29T13:29:26;3.30;;;3.00;;
6362;SDS011;3214;49.932;8.494;2024-03-29T13:31:53;7.57;;;2.97;;
6362;SDS011;3214;49.932;8.494;2024-03-29T13:34:19;4.33;;;3.10;;
6362;SDS011;3214;49.932;8.494;2024-03-29T13:36:46;4.30;;;2.90;;
6362;SDS011;3214;49.932;8.494;2024-03-29T13:39:13;5.13;;;3.10;;
6362;SDS011;3214;49.932;8.494;2024-03-29T13:41:40;4.87;;;3.00;;
6362;SDS011;3214;49.932;8.494;2024-03-29T13:44:08;5.00;;;2.70;;
6362;SDS011;3214;49.932;8.494;2024-03-29T13:46:35;3.00;;;2.70;;
6362;SDS011;3214;49.932;8.494;2024-03-29T13:49:02;3.87;;;2.67;;
6362;SDS011;3214;49.932;8.494;2024-03-29T13:51:29;3.67;;;2.53;;
6362;SDS011;3214;49.932;8.494;2024-03-29T13:53:56;3.60;;;2.70;;
6362;SDS011;3214;49.932;8.494;2024-03-29T13:56:23;3.90;;;2.53;;
6362;SDS011;3214;49.932;8.494;2024-03-29T13:58:50;3.87;;;2.60;;
6362;SDS011;3214;49.932;8.494;2024-03-29T14:01:19;3.80;;;2.63;;
6362;SDS011;3214;49.932;8.494;2024-03-29T14:03:45;3.30;;;2.37;;
6362;SDS011;3214;49.932;8.494;2024-03-29T14:06:12;2.37;;;2.10;;
6362;SDS011;3214;49.932;8.494;2024-03-29T14:08:39;5.57;;;2.10;;
6362;SDS011;3214;49.932;8.494;2024-03-29T14:11:05;4.90;;;2.30;;
6362;SDS011;3214;49.932;8.494;2024-03-29T14:13:32;3.20;;;2.10;;
6362;SDS011;3214;49.932;8.494;2024-03-29T14:15:59;6.47;;;2.33;;
6362;SDS011;3214;49.932;8.494;2024-03-29T14:18:27;3.07;;;2.50;;
6362;SDS011;3214;49.932;8.494;2024-03-29T14:20:54;3.40;;;2.60;;
6362;SDS011;3214;49.932;8.494;2024-03-29T14:23:22;3.57;;;2.80;;
6362;SDS011;3214;49.932;8.494;2024-03-29T14:25:50;3.80;;;2.60;;
6362;SDS011;3214;49.932;8.494;2024-03-29T14:28:17;5.37;;;2.60;;
6362;SDS011;3214;49.932;8.494;2024-03-29T14:30:44;5.33;;;3.07;;
6362;SDS011;3214;49.932;8.494;2024-03-29T14:33:10;6.10;;;3.33;;
6362;SDS011;3214;49.932;8.494;2024-03-29T14:35:38;5.03;;;3.47;;
6362;SDS011;3214;49.932;8.494;2024-03-29T14:38:05;5.27;;;3.57;;
6362;SDS011;3214;49.932;8.494;2024-03-29T14:40:32;5.73;;;3.97;;
6362;SDS011;3214;49.932;8.494;2024-03-29T14:42:59;7.00;;;3.90;;
6362;SDS011;3214;49.932;8.494;2024-03-29T14:45:26;5.63;;;3.77;;
6362;SDS011;3214;49.932;8.494;2024-03-29T14:47:53;5.47;;;3.87;;
6362;SDS011;3214;49.932;8.494;2024-03-29T14:50:20;4.50;;;3.70;;
6362;SDS011;3214;49.932;8.494;2024-03-29T14:52:48;6.77;;;4.17;;
6362;SDS011;3214;49.932;8.494;2024-03-29T14:55:15;5.83;;;3.63;;
6362;SDS011;3214;49.932;8.494;2024-03-29T14:57:41;7.47;;;3.57;;
6362;SDS011;3214;49.932;8.494;2024-03-29T15:00:09;4.93;;;3.30;;
6362;SDS011;3214;49.932;8.494;2024-03-29T15:02:37;3.40;;;2.80;;
6362;SDS011;3214;49.932;8.494;2024-03-29T15:05:04;4.70;;;2.50;;
6362;SDS011;3214;49.932;8.494;2024-03-29T15:07:31;3.07;;;2.50;;
6362;SDS011;3214;49.932;8.494;2024-03-29T15:10:00;2.97;;;2.50;;
6362;SDS011;3214;49.932;8.494;2024-03-29T15:12:28;3.60;;;2.47;;
6362;SDS011;3214;49.932;8.494;2024-03-29T15:14:55;4.07;;;2.50;;
6362;SDS011;3214;49.932;8.494;2024-03-29T15:17:22;3.40;;;2.10;;